Terminal Aerodrome Forecast
Issued by NWS Duluth, MN

Home | Current Version | Previous Version | Text Only | Print | Product List | Glossary On
Versions: 1 2 3 4 5 6 7 8 9 10 11 12 13 14 15 16 17 18 19 20 21
000
FTUS43 KDLH 222100 AAA
TAFINL
TAF AMD
KINL 222152Z 2222/2318 12004KT P6SM OVC009
     FM222300 12004KT P6SM SCT009
     FM230300 14005KT 6SM BR OVC015
     FM230700 14005KT 4SM -FZDZ BR OVC007
     FM231600 18005KT 4SM -FZDZ BR OVC007=

USA.gov is the U.S. government's official web portal to all federal, state and local government web resources and services.